Time,TemperatureF,DewpointF,PressureIn,WindDirection,WindDirectionDegrees,WindSpeedMPH,WindSpeedGustMPH,Humidity,HourlyPrecipIn,Conditions,Clouds,dailyrainin,SoftwareType,DateUTC
2013-01-15 00:01:00,47.0,46.7,30.26,NW,315,0.0,0.0,99,0.08,,,1.15,Wunderground v.1.13,2013-01-15 05:01:00,
2013-01-15 00:03:00,47.0,46.7,30.26,NW,315,0.0,0.0,99,0.08,,,1.15,Wunderground v.1.13,2013-01-15 05:03:00,
2013-01-15 00:05:00,47.1,46.8,30.26,NW,315,0.0,0.0,99,0.08,,,1.15,Wunderground v.1.13,2013-01-15 05:05:00,
2013-01-15 00:07:00,47.1,46.8,30.26,NW,315,0.0,0.0,99,0.08,,,1.15,Wunderground v.1.13,2013-01-15 05:07:00,
2013-01-15 00:13:00,47.1,46.8,30.26,NW,315,0.0,0.0,99,0.05,,,1.15,Wunderground v.1.13,2013-01-15 05:13:00,
2013-01-15 00:18:00,47.1,46.8,30.25,NW,315,0.0,0.0,99,0.00,,,1.15,Wunderground v.1.13,2013-01-15 05:18:00,
2013-01-15 00:23:00,47.4,47.1,30.26,NW,315,0.0,0.0,99,0.00,,,1.15,Wunderground v.1.13,2013-01-15 05:23:00,
2013-01-15 00:29:00,47.5,47.2,30.26,NW,315,0.0,0.0,99,0.00,,,1.15,Wunderground v.1.13,2013-01-15 05:29:00,
2013-01-15 00:34:00,47.6,47.3,30.25,NW,315,0.0,0.0,99,0.00,,,1.15,Wunderground v.1.13,2013-01-15 05:34:00,
2013-01-15 00:39:00,47.7,47.4,30.25,NW,315,0.0,0.0,99,0.00,,,1.15,Wunderground v.1.13,2013-01-15 05:39:00,
2013-01-15 00:44:00,48.0,47.7,30.25,NW,315,0.0,0.0,99,0.00,,,1.15,Wunderground v.1.13,2013-01-15 05:44:00,
2013-01-15 00:49:00,48.2,47.9,30.25,NW,315,0.0,0.0,99,0.00,,,0.00,Wunderground v.1.13,2013-01-15 05:49:00,
2013-01-15 00:54:00,48.3,48.0,30.25,NW,315,0.0,0.0,99,0.00,,,0.00,Wunderground v.1.13,2013-01-15 05:54:00,
2013-01-15 00:59:00,48.4,48.1,30.25,NW,315,0.0,0.0,99,0.00,,,0.00,Wunderground v.1.13,2013-01-15 05:59:00,
2013-01-15 01:05:00,48.5,48.2,30.25,NW,315,0.0,0.0,99,0.00,,,0.00,Wunderground v.1.13,2013-01-15 06:05:00,
2013-01-15 01:11:00,48.8,48.5,30.25,NW,315,0.0,0.0,99,0.00,,,0.00,Wunderground v.1.13,2013-01-15 06:11:00,
2013-01-15 01:16:00,49.6,49.3,30.25,NW,315,0.0,0.0,99,0.00,,,0.00,Wunderground v.1.13,2013-01-15 06:16:00,
2013-01-15 01:21:00,50.2,49.9,30.25,NW,315,0.0,0.0,99,0.00,,,0.00,Wunderground v.1.13,2013-01-15 06:21:00,
2013-01-15 01:26:00,49.7,49.4,30.25,NW,315,0.0,0.0,99,0.00,,,0.00,Wunderground v.1.13,2013-01-15 06:26:00,
2013-01-15 01:31:00,50.0,49.7,30.24,NW,315,0.0,0.0,99,0.00,,,0.00,Wunderground v.1.13,2013-01-15 06:31:00,
2013-01-15 01:37:00,52.1,51.8,30.24,NW,315,0.0,0.0,99,0.00,,,0.00,Wunderground v.1.13,2013-01-15 06:37:00,
2013-01-15 01:42:00,52.7,52.4,30.24,NW,315,0.0,0.0,99,0.00,,,0.01,Wunderground v.1.13,2013-01-15 06:42:00,
2013-01-15 01:47:00,51.9,51.6,30.24,NW,315,0.0,0.0,99,0.00,,,0.01,Wunderground v.1.13,2013-01-15 06:47:00,
2013-01-15 01:52:00,52.0,51.7,30.24,NW,315,0.0,0.0,99,0.00,,,0.01,Wunderground v.1.13,2013-01-15 06:52:00,
2013-01-15 01:57:00,53.6,53.6,30.23,NW,315,0.0,0.0,100,0.00,,,0.02,Wunderground v.1.13,2013-01-15 06:57:00,
2013-01-15 02:03:00,54.4,54.1,30.22,South,176,0.0,2.0,99,0.00,,,0.02,Wunderground v.1.13,2013-01-15 07:03:00,
2013-01-15 02:08:00,53.9,53.9,30.22,South,176,0.0,0.0,100,0.00,,,0.02,Wunderground v.1.13,2013-01-15 07:08:00,
2013-01-15 02:13:00,54.5,54.2,30.22,ENE,60,0.0,2.0,99,0.00,,,0.02,Wunderground v.1.13,2013-01-15 07:13:00,
2013-01-15 02:18:00,55.3,55.3,30.22,ENE,60,0.0,0.0,100,0.00,,,0.02,Wunderground v.1.13,2013-01-15 07:18:00,
2013-01-15 02:23:00,55.7,55.4,30.22,ENE,60,0.0,1.0,99,0.00,,,0.03,Wunderground v.1.13,2013-01-15 07:23:00,
2013-01-15 02:28:00,56.0,56.0,30.22,ENE,60,0.0,0.0,100,0.00,,,0.03,Wunderground v.1.13,2013-01-15 07:28:00,
2013-01-15 02:33:00,56.3,56.0,30.22,ENE,60,0.0,0.0,99,0.00,,,0.03,Wunderground v.1.13,2013-01-15 07:33:00,
2013-01-15 02:38:00,56.3,56.0,30.22,ENE,60,0.0,0.0,99,0.00,,,0.03,Wunderground v.1.13,2013-01-15 07:38:00,
2013-01-15 02:43:00,56.7,56.4,30.22,ENE,60,0.0,0.0,99,0.00,,,0.03,Wunderground v.1.13,2013-01-15 07:43:00,
2013-01-15 02:48:00,57.0,57.0,30.22,ENE,60,0.0,0.0,100,0.00,,,0.04,Wunderground v.1.13,2013-01-15 07:48:00,
2013-01-15 02:53:00,57.1,57.1,30.22,ENE,60,0.0,0.0,100,0.00,,,0.04,Wunderground v.1.13,2013-01-15 07:53:00,
2013-01-15 02:58:00,57.1,57.1,30.21,ENE,60,0.0,1.0,100,0.00,,,0.04,Wunderground v.1.13,2013-01-15 07:58:00,
2013-01-15 03:03:00,57.0,57.0,30.21,ENE,60,0.0,0.0,100,0.00,,,0.04,Wunderground v.1.13,2013-01-15 08:03:00,
2013-01-15 03:08:00,57.0,57.0,30.20,ENE,60,0.0,0.0,100,0.00,,,0.04,Wunderground v.1.13,2013-01-15 08:08:00,
2013-01-15 03:13:00,57.1,57.1,30.21,South,170,2.0,3.0,100,0.00,,,0.04,Wunderground v.1.13,2013-01-15 08:13:00,
2013-01-15 03:18:00,57.1,57.1,30.21,South,182,0.0,2.0,100,0.00,,,0.04,Wunderground v.1.13,2013-01-15 08:18:00,
2013-01-15 03:23:00,57.1,57.1,30.21,East,100,0.0,2.0,100,0.00,,,0.04,Wunderground v.1.13,2013-01-15 08:23:00,
2013-01-15 03:28:00,57.0,57.0,30.21,SW,215,0.0,0.0,100,0.00,,,0.04,Wunderground v.1.13,2013-01-15 08:28:00,
2013-01-15 03:33:00,57.1,57.1,30.21,SSW,211,0.0,0.0,100,0.00,,,0.04,Wunderground v.1.13,2013-01-15 08:33:00,
2013-01-15 03:38:00,57.3,57.0,30.21,SSW,211,0.0,0.0,99,0.00,,,0.04,Wunderground v.1.13,2013-01-15 08:38:00,
2013-01-15 03:43:00,57.5,57.2,30.21,SSW,211,0.0,0.0,99,0.00,,,0.05,Wunderground v.1.13,2013-01-15 08:43:00,
2013-01-15 03:48:00,57.6,57.6,30.21,SSW,211,0.0,0.0,100,0.00,,,0.05,Wunderground v.1.13,2013-01-15 08:48:00,
2013-01-15 03:53:00,57.6,57.6,30.21,SSW,211,0.0,0.0,100,0.00,,,0.05,Wunderground v.1.13,2013-01-15 08:53:00,
2013-01-15 03:58:00,57.6,57.6,30.20,SSW,211,0.0,0.0,100,0.00,,,0.05,Wunderground v.1.13,2013-01-15 08:58:00,
2013-01-15 04:03:00,57.6,57.6,30.20,SSW,201,0.0,0.0,100,0.00,,,0.05,Wunderground v.1.13,2013-01-15 09:03:00,
2013-01-15 04:08:00,57.5,57.5,30.20,SSW,201,0.0,1.0,100,0.00,,,0.05,Wunderground v.1.13,2013-01-15 09:08:00,
2013-01-15 04:13:00,57.5,57.5,30.20,SSW,201,0.0,1.0,100,0.00,,,0.05,Wunderground v.1.13,2013-01-15 09:13:00,
2013-01-15 04:18:00,57.6,57.6,30.20,SSW,201,0.0,0.0,100,0.00,,,0.05,Wunderground v.1.13,2013-01-15 09:18:00,
2013-01-15 04:23:00,57.6,57.6,30.20,East,80,1.0,1.0,100,0.00,,,0.05,Wunderground v.1.13,2013-01-15 09:23:00,
2013-01-15 04:28:00,57.5,57.5,30.20,East,93,0.0,0.0,100,0.00,,,0.05,Wunderground v.1.13,2013-01-15 09:28:00,
2013-01-15 04:33:00,57.5,57.2,30.20,ESE,106,1.0,3.0,99,0.00,,,0.05,Wunderground v.1.13,2013-01-15 09:33:00,
2013-01-15 04:38:00,57.7,57.7,30.21,WSW,255,1.0,6.0,100,0.00,,,0.06,Wunderground v.1.13,2013-01-15 09:38:00,
2013-01-15 04:44:00,57.7,57.7,30.20,West,276,2.0,2.0,100,0.11,,,0.07,Wunderground v.1.13,2013-01-15 09:44:00,
2013-01-15 04:49:00,57.6,57.6,30.21,SSE,159,0.0,4.0,100,0.30,,,0.09,Wunderground v.1.13,2013-01-15 09:49:00,
2013-01-15 04:54:00,57.5,57.5,30.21,WSW,244,2.0,2.0,100,0.18,,,0.10,Wunderground v.1.13,2013-01-15 09:54:00,
2013-01-15 04:59:00,57.5,57.5,30.22,SW,221,0.0,1.0,100,0.18,,,0.12,Wunderground v.1.13,2013-01-15 09:59:00,
2013-01-15 05:04:00,57.5,57.2,30.23,SW,222,0.0,1.0,99,0.25,,,0.14,Wunderground v.1.13,2013-01-15 10:04:00,
2013-01-15 05:09:00,57.4,57.1,30.23,South,190,1.0,6.0,99,0.38,,,0.17,Wunderground v.1.13,2013-01-15 10:09:00,
2013-01-15 05:14:00,57.3,57.0,30.23,South,184,0.0,2.0,99,0.31,,,0.19,Wunderground v.1.13,2013-01-15 10:14:00,
2013-01-15 05:19:00,57.2,57.2,30.22,South,183,0.0,6.0,100,0.25,,,0.22,Wunderground v.1.13,2013-01-15 10:19:00,
2013-01-15 05:24:00,57.2,57.2,30.22,South,184,0.0,4.0,100,0.26,,,0.24,Wunderground v.1.13,2013-01-15 10:24:00,
2013-01-15 05:29:00,57.1,57.1,30.20,South,187,0.0,4.0,100,0.21,,,0.26,Wunderground v.1.13,2013-01-15 10:29:00,
2013-01-15 05:34:00,57.1,57.1,30.19,South,187,0.0,1.0,100,0.16,,,0.27,Wunderground v.1.13,2013-01-15 10:34:00,
2013-01-15 05:39:00,57.1,57.1,30.19,South,186,0.0,0.0,100,0.14,,,0.28,Wunderground v.1.13,2013-01-15 10:39:00,
2013-01-15 05:44:00,57.1,57.1,30.20,South,186,0.0,1.0,100,0.06,,,0.28,Wunderground v.1.13,2013-01-15 10:44:00,
2013-01-15 05:49:00,57.1,57.1,30.20,South,186,0.0,0.0,100,0.04,,,0.28,Wunderground v.1.13,2013-01-15 10:49:00,
2013-01-15 05:54:00,57.1,57.1,30.20,South,186,0.0,0.0,100,0.04,,,0.29,Wunderground v.1.13,2013-01-15 10:54:00,
2013-01-15 05:59:00,57.2,57.2,30.20,SW,233,1.0,2.0,100,0.07,,,0.30,Wunderground v.1.13,2013-01-15 10:59:00,
2013-01-15 06:04:00,57.5,57.2,30.19,SE,137,0.0,1.0,99,0.18,,,0.31,Wunderground v.1.13,2013-01-15 11:04:00,
2013-01-15 06:09:00,57.6,57.6,30.20,SE,137,0.0,0.0,100,0.13,,,0.32,Wunderground v.1.13,2013-01-15 11:09:00,
2013-01-15 06:14:00,57.5,57.5,30.21,SE,137,0.0,0.0,100,0.47,,,0.35,Wunderground v.1.13,2013-01-15 11:14:00,
2013-01-15 06:19:00,57.5,57.2,30.21,SE,137,0.0,0.0,99,0.47,,,0.39,Wunderground v.1.13,2013-01-15 11:19:00,
2013-01-15 06:24:00,57.5,57.2,30.21,SE,138,1.0,1.0,99,0.46,,,0.43,Wunderground v.1.13,2013-01-15 11:24:00,
2013-01-15 06:29:00,57.5,57.2,30.21,SSE,152,0.0,0.0,99,0.32,,,0.46,Wunderground v.1.13,2013-01-15 11:29:00,
2013-01-15 06:34:00,57.5,57.2,30.20,SSE,152,0.0,1.0,99,0.26,,,0.48,Wunderground v.1.13,2013-01-15 11:34:00,
2013-01-15 06:39:00,57.5,57.2,30.21,East,95,0.0,1.0,99,0.15,,,0.50,Wunderground v.1.13,2013-01-15 11:39:00,
2013-01-15 06:44:00,57.4,57.1,30.21,East,95,0.0,1.0,99,0.15,,,0.51,Wunderground v.1.13,2013-01-15 11:44:00,
2013-01-15 06:49:00,57.4,57.1,30.20,East,95,0.0,0.0,99,0.14,,,0.52,Wunderground v.1.13,2013-01-15 11:49:00,
2013-01-15 06:54:00,57.5,57.2,30.21,ESE,111,0.0,3.0,99,0.15,,,0.53,Wunderground v.1.13,2013-01-15 11:54:00,
2013-01-15 06:59:00,57.6,57.6,30.21,ESE,112,0.0,1.0,100,0.26,,,0.54,Wunderground v.1.13,2013-01-15 11:59:00,
2013-01-15 07:04:00,57.5,57.5,30.21,SSW,200,0.0,2.0,100,0.21,,,0.56,Wunderground v.1.13,2013-01-15 12:04:00,
2013-01-15 07:09:00,57.5,57.2,30.21,SE,134,0.0,1.0,99,0.14,,,0.58,Wunderground v.1.13,2013-01-15 12:09:00,
2013-01-15 07:14:00,57.4,57.1,30.21,SE,134,0.0,1.0,99,0.23,,,0.59,Wunderground v.1.13,2013-01-15 12:14:00,
2013-01-15 07:19:00,57.4,57.1,30.21,SE,134,0.0,0.0,99,0.26,,,0.61,Wunderground v.1.13,2013-01-15 12:19:00,
2013-01-15 07:24:00,57.4,57.1,30.21,ESE,116,0.0,1.0,99,0.15,,,0.62,Wunderground v.1.13,2013-01-15 12:24:00,
2013-01-15 07:29:00,57.4,57.1,30.22,ESE,116,0.0,0.0,99,0.15,,,0.64,Wunderground v.1.13,2013-01-15 12:29:00,
2013-01-15 07:34:00,57.4,57.1,30.22,SE,129,0.0,1.0,99,0.19,,,0.65,Wunderground v.1.13,2013-01-15 12:34:00,
2013-01-15 07:39:00,57.3,57.0,30.22,SE,129,0.0,0.0,99,0.11,,,0.66,Wunderground v.1.13,2013-01-15 12:39:00,
2013-01-15 07:44:00,57.3,57.0,30.22,SE,129,0.0,0.0,99,0.15,,,0.67,Wunderground v.1.13,2013-01-15 12:44:00,
2013-01-15 07:50:00,57.3,57.0,30.22,SE,129,0.0,0.0,99,0.12,,,0.68,Wunderground v.1.13,2013-01-15 12:50:00,
2013-01-15 07:54:00,57.3,57.0,30.23,SE,129,0.0,0.0,99,0.12,,,0.69,Wunderground v.1.13,2013-01-15 12:54:00,
2013-01-15 08:00:00,57.2,56.9,30.22,SE,129,0.0,0.0,99,0.12,,,0.70,Wunderground v.1.13,2013-01-15 13:00:00,
2013-01-15 08:05:00,57.2,56.9,30.23,SE,129,0.0,1.0,99,0.08,,,0.71,Wunderground v.1.13,2013-01-15 13:05:00,
2013-01-15 08:10:00,57.2,56.9,30.22,SE,129,0.0,0.0,99,0.09,,,0.72,Wunderground v.1.13,2013-01-15 13:10:00,
2013-01-15 08:15:00,57.2,57.2,30.22,SE,129,0.0,0.0,100,0.09,,,0.72,Wunderground v.1.13,2013-01-15 13:15:00,
2013-01-15 08:20:00,57.2,57.2,30.23,SE,129,0.0,1.0,100,0.05,,,0.72,Wunderground v.1.13,2013-01-15 13:20:00,
2013-01-15 08:25:00,57.2,56.9,30.23,SE,129,0.0,0.0,99,0.04,,,0.73,Wunderground v.1.13,2013-01-15 13:25:00,
2013-01-15 08:30:00,57.2,57.2,30.23,SE,129,0.0,1.0,100,0.04,,,0.73,Wunderground v.1.13,2013-01-15 13:30:00,
2013-01-15 08:35:00,57.2,57.2,30.23,SE,129,0.0,0.0,100,0.04,,,0.73,Wunderground v.1.13,2013-01-15 13:35:00,
2013-01-15 08:40:00,57.1,57.1,30.23,SE,129,0.0,0.0,100,0.04,,,0.73,Wunderground v.1.13,2013-01-15 13:40:00,
2013-01-15 08:45:00,57.1,57.1,30.24,SE,129,0.0,0.0,100,0.00,,,0.73,Wunderground v.1.13,2013-01-15 13:45:00,
2013-01-15 08:50:00,57.1,57.1,30.24,SE,129,0.0,0.0,100,0.00,,,0.74,Wunderground v.1.13,2013-01-15 13:50:00,
2013-01-15 08:55:00,57.1,57.1,30.23,SE,129,0.0,0.0,100,0.12,,,0.75,Wunderground v.1.13,2013-01-15 13:55:00,
2013-01-15 09:00:00,57.1,57.1,30.24,SE,129,0.0,0.0,100,0.16,,,0.76,Wunderground v.1.13,2013-01-15 14:00:00,
2013-01-15 09:05:00,57.1,57.1,30.24,SE,129,0.0,0.0,100,0.08,,,0.76,Wunderground v.1.13,2013-01-15 14:05:00,
2013-01-15 09:10:00,56.8,56.5,30.24,SE,129,0.0,0.0,99,0.05,,,0.76,Wunderground v.1.13,2013-01-15 14:10:00,
2013-01-15 09:15:00,56.6,56.3,30.25,SE,129,0.0,0.0,99,0.00,,,0.76,Wunderground v.1.13,2013-01-15 14:15:00,
2013-01-15 09:20:00,56.6,56.3,30.24,SE,129,0.0,0.0,99,0.00,,,0.76,Wunderground v.1.13,2013-01-15 14:20:00,
2013-01-15 09:25:00,56.6,56.3,30.24,SE,129,0.0,0.0,99,0.00,,,0.77,Wunderground v.1.13,2013-01-15 14:25:00,
2013-01-15 09:30:00,56.6,56.3,30.24,SE,129,0.0,0.0,99,0.00,,,0.77,Wunderground v.1.13,2013-01-15 14:30:00,
2013-01-15 09:35:00,56.6,56.3,30.24,SE,129,0.0,0.0,99,0.00,,,0.77,Wunderground v.1.13,2013-01-15 14:35:00,
2013-01-15 09:40:00,56.7,56.4,30.24,SE,129,0.0,0.0,99,0.00,,,0.77,Wunderground v.1.13,2013-01-15 14:40:00,
2013-01-15 09:45:00,56.7,56.4,30.24,SE,129,0.0,0.0,99,0.00,,,0.78,Wunderground v.1.13,2013-01-15 14:45:00,
2013-01-15 09:50:00,56.7,56.4,30.23,SE,129,0.0,0.0,99,0.18,,,0.79,Wunderground v.1.13,2013-01-15 14:50:00,
2013-01-15 09:55:00,56.7,56.4,30.23,SE,129,0.0,0.0,99,0.07,,,0.79,Wunderground v.1.13,2013-01-15 14:55:00,
2013-01-15 10:00:00,56.8,56.5,30.23,SE,129,0.0,0.0,99,0.07,,,0.80,Wunderground v.1.13,2013-01-15 15:00:00,
2013-01-15 10:05:00,56.8,56.5,30.23,SE,129,0.0,0.0,99,0.07,,,0.80,Wunderground v.1.13,2013-01-15 15:05:00,
2013-01-15 10:10:00,56.8,56.5,30.23,SE,129,0.0,0.0,99,0.04,,,0.80,Wunderground v.1.13,2013-01-15 15:10:00,
2013-01-15 10:15:00,56.8,56.5,30.23,SE,129,0.0,0.0,99,0.00,,,0.80,Wunderground v.1.13,2013-01-15 15:15:00,
2013-01-15 10:20:00,56.2,55.9,30.23,SE,129,0.0,0.0,99,0.00,,,0.80,Wunderground v.1.13,2013-01-15 15:20:00,
2013-01-15 10:25:00,55.7,55.4,30.24,SE,129,0.0,1.0,99,0.00,,,0.81,Wunderground v.1.13,2013-01-15 15:25:00,
2013-01-15 10:30:00,55.5,55.2,30.23,SE,129,0.0,0.0,99,0.00,,,0.81,Wunderground v.1.13,2013-01-15 15:30:00,
2013-01-15 10:35:00,55.5,55.2,30.23,SE,129,0.0,0.0,99,0.06,,,0.82,Wunderground v.1.13,2013-01-15 15:35:00,
2013-01-15 10:40:00,55.4,55.1,30.23,SE,129,0.0,0.0,99,0.16,,,0.83,Wunderground v.1.13,2013-01-15 15:40:00,
2013-01-15 10:45:00,55.1,54.8,30.23,SE,129,0.0,0.0,99,0.07,,,0.83,Wunderground v.1.13,2013-01-15 15:45:00,
2013-01-15 10:50:00,55.1,54.8,30.23,SE,129,0.0,0.0,99,0.04,,,0.83,Wunderground v.1.13,2013-01-15 15:50:00,
2013-01-15 10:55:00,55.8,55.5,30.23,SE,129,0.0,0.0,99,0.04,,,0.84,Wunderground v.1.13,2013-01-15 15:55:00,
2013-01-15 11:00:00,56.1,55.8,30.23,SE,129,0.0,0.0,99,0.09,,,0.85,Wunderground v.1.13,2013-01-15 16:00:00,
2013-01-15 11:05:00,56.4,56.1,30.22,SE,129,0.0,0.0,99,0.08,,,0.85,Wunderground v.1.13,2013-01-15 16:05:00,
2013-01-15 11:10:00,56.3,56.0,30.22,SE,129,0.0,0.0,99,0.07,,,0.86,Wunderground v.1.13,2013-01-15 16:10:00,
2013-01-15 11:15:00,56.2,55.9,30.22,SE,129,0.0,0.0,99,0.07,,,0.87,Wunderground v.1.13,2013-01-15 16:15:00,
2013-01-15 11:20:00,56.3,56.0,30.21,SE,129,0.0,0.0,99,0.07,,,0.87,Wunderground v.1.13,2013-01-15 16:20:00,
2013-01-15 11:25:00,56.6,56.3,30.21,SE,129,0.0,0.0,99,0.06,,,0.87,Wunderground v.1.13,2013-01-15 16:25:00,
2013-01-15 11:31:00,56.8,56.5,30.21,SE,129,0.0,0.0,99,0.04,,,0.87,Wunderground v.1.13,2013-01-15 16:31:00,
2013-01-15 11:36:00,56.6,56.3,30.21,SE,129,0.0,0.0,99,0.00,,,0.87,Wunderground v.1.13,2013-01-15 16:36:00,
2013-01-15 11:41:00,55.5,55.2,30.21,SE,129,0.0,0.0,99,0.00,,,0.87,Wunderground v.1.13,2013-01-15 16:41:00,
2013-01-15 11:46:00,55.2,54.9,30.20,SE,129,0.0,0.0,99,0.00,,,0.87,Wunderground v.1.13,2013-01-15 16:46:00,
2013-01-15 11:51:00,54.9,54.6,30.20,SE,129,0.0,0.0,99,0.00,,,0.87,Wunderground v.1.13,2013-01-15 16:51:00,
2013-01-15 11:56:00,55.1,54.8,30.19,SE,129,0.0,0.0,99,0.00,,,0.88,Wunderground v.1.13,2013-01-15 16:56:00,
2013-01-15 12:01:00,55.9,55.6,30.19,SE,129,0.0,0.0,99,0.00,,,0.88,Wunderground v.1.13,2013-01-15 17:01:00,
2013-01-15 12:06:00,56.6,56.3,30.19,SE,129,0.0,0.0,99,0.00,,,0.88,Wunderground v.1.13,2013-01-15 17:06:00,
2013-01-15 12:11:00,56.9,56.6,30.18,SE,129,0.0,0.0,99,0.04,,,0.89,Wunderground v.1.13,2013-01-15 17:11:00,
2013-01-15 12:16:00,57.3,57.0,30.18,SE,129,0.0,0.0,99,0.04,,,0.89,Wunderground v.1.13,2013-01-15 17:16:00,
2013-01-15 12:21:00,57.4,57.1,30.17,South,183,0.0,0.0,99,0.04,,,0.89,Wunderground v.1.13,2013-01-15 17:21:00,
2013-01-15 12:26:00,57.6,57.3,30.17,South,182,0.0,0.0,99,0.04,,,0.90,Wunderground v.1.13,2013-01-15 17:26:00,
2013-01-15 12:31:00,57.7,57.4,30.17,South,181,0.0,0.0,99,0.04,,,0.90,Wunderground v.1.13,2013-01-15 17:31:00,
2013-01-15 12:36:00,57.8,57.5,30.17,South,181,0.0,0.0,99,0.04,,,0.90,Wunderground v.1.13,2013-01-15 17:36:00,
2013-01-15 12:41:00,57.9,57.6,30.16,South,181,0.0,0.0,99,0.00,,,0.90,Wunderground v.1.13,2013-01-15 17:41:00,
2013-01-15 12:46:00,57.9,57.6,30.15,South,181,0.0,0.0,99,0.00,,,0.90,Wunderground v.1.13,2013-01-15 17:46:00,
2013-01-15 12:51:00,58.0,57.7,30.15,South,181,0.0,0.0,99,0.00,,,0.91,Wunderground v.1.13,2013-01-15 17:51:00,
2013-01-15 12:56:00,57.9,57.6,30.15,South,178,0.0,1.0,99,0.00,,,0.91,Wunderground v.1.13,2013-01-15 17:56:00,
2013-01-15 13:01:00,57.9,57.6,30.15,South,178,0.0,1.0,99,0.00,,,0.91,Wunderground v.1.13,2013-01-15 18:01:00,
2013-01-15 13:06:00,57.8,57.5,30.15,SSW,212,0.0,1.0,99,0.00,,,0.91,Wunderground v.1.13,2013-01-15 18:06:00,
2013-01-15 13:11:00,57.8,57.5,30.15,SSE,167,0.0,1.0,99,0.00,,,0.91,Wunderground v.1.13,2013-01-15 18:11:00,
2013-01-15 13:16:00,57.7,57.4,30.14,SW,219,0.0,0.0,99,0.00,,,0.91,Wunderground v.1.13,2013-01-15 18:16:00,
2013-01-15 13:21:00,57.8,57.5,30.14,WSW,244,0.0,0.0,99,0.00,,,0.92,Wunderground v.1.13,2013-01-15 18:21:00,
2013-01-15 13:26:00,57.8,57.5,30.13,South,180,0.0,1.0,99,0.00,,,0.92,Wunderground v.1.13,2013-01-15 18:26:00,
2013-01-15 13:31:00,57.7,57.4,30.13,South,182,0.0,0.0,99,0.00,,,0.92,Wunderground v.1.13,2013-01-15 18:31:00,
2013-01-15 13:36:00,57.6,57.6,30.13,SE,126,0.0,1.0,100,0.04,,,0.92,Wunderground v.1.13,2013-01-15 18:36:00,
2013-01-15 13:41:00,57.4,57.1,30.13,SSE,159,0.0,1.0,99,0.04,,,0.93,Wunderground v.1.13,2013-01-15 18:41:00,
2013-01-15 13:46:00,57.4,57.1,30.13,SE,126,0.0,2.0,99,0.04,,,0.93,Wunderground v.1.13,2013-01-15 18:46:00,
2013-01-15 13:51:00,57.3,57.0,30.12,ESE,114,0.0,1.0,99,0.04,,,0.93,Wunderground v.1.13,2013-01-15 18:51:00,
2013-01-15 13:56:00,57.3,57.0,30.12,South,169,0.0,0.0,99,0.00,,,0.93,Wunderground v.1.13,2013-01-15 18:56:00,
2013-01-15 14:01:00,57.3,57.0,30.12,South,182,0.0,3.0,99,0.00,,,0.94,Wunderground v.1.13,2013-01-15 19:01:00,
2013-01-15 14:06:00,57.3,57.0,30.12,SSE,164,0.0,2.0,99,0.00,,,0.94,Wunderground v.1.13,2013-01-15 19:06:00,
2013-01-15 14:11:00,57.4,57.1,30.12,SSE,164,0.0,1.0,99,0.00,,,0.94,Wunderground v.1.13,2013-01-15 19:11:00,
2013-01-15 14:16:00,57.4,57.1,30.12,SE,138,0.0,0.0,99,0.05,,,0.95,Wunderground v.1.13,2013-01-15 19:16:00,
2013-01-15 14:21:00,57.5,57.2,30.12,SSW,200,0.0,2.0,99,0.05,,,0.95,Wunderground v.1.13,2013-01-15 19:21:00,
2013-01-15 14:26:00,57.5,57.2,30.12,SSW,200,0.0,1.0,99,0.07,,,0.96,Wunderground v.1.13,2013-01-15 19:26:00,
2013-01-15 14:31:00,57.5,57.2,30.12,SE,133,0.0,0.0,99,0.10,,,0.97,Wunderground v.1.13,2013-01-15 19:31:00,
2013-01-15 14:37:00,57.5,57.2,30.12,SSE,149,0.0,3.0,99,0.08,,,0.97,Wunderground v.1.13,2013-01-15 19:37:00,
2013-01-15 14:42:00,57.5,57.2,30.12,SSW,207,0.0,2.0,99,0.06,,,0.98,Wunderground v.1.13,2013-01-15 19:42:00,
2013-01-15 14:47:00,57.5,57.2,30.12,SSE,151,0.0,3.0,99,0.06,,,0.98,Wunderground v.1.13,2013-01-15 19:47:00,
2013-01-15 14:52:00,57.4,57.1,30.12,ESE,105,1.0,1.0,99,0.05,,,0.99,Wunderground v.1.13,2013-01-15 19:52:00,
2013-01-15 14:57:00,57.3,57.0,30.12,SE,142,0.0,1.0,99,0.05,,,0.99,Wunderground v.1.13,2013-01-15 19:57:00,
2013-01-15 15:02:00,57.2,56.9,30.12,South,174,1.0,4.0,99,0.34,,,1.01,Wunderground v.1.13,2013-01-15 20:02:00,
2013-01-15 15:07:00,57.2,56.9,30.12,ENE,78,0.0,2.0,99,0.11,,,1.01,Wunderground v.1.13,2013-01-15 20:07:00,
2013-01-15 15:12:00,57.1,56.8,30.11,East,81,0.0,5.0,99,0.06,,,1.02,Wunderground v.1.13,2013-01-15 20:12:00,
2013-01-15 15:17:00,57.1,56.8,30.12,WSW,238,2.0,2.0,99,0.17,,,1.03,Wunderground v.1.13,2013-01-15 20:17:00,
2013-01-15 15:22:00,57.0,56.7,30.12,South,177,0.0,2.0,99,0.13,,,1.04,Wunderground v.1.13,2013-01-15 20:22:00,
2013-01-15 15:27:00,56.9,56.3,30.12,SSW,203,0.0,3.0,98,0.08,,,1.04,Wunderground v.1.13,2013-01-15 20:27:00,
2013-01-15 15:32:00,56.9,56.3,30.12,SSW,199,0.0,1.0,98,0.05,,,1.04,Wunderground v.1.13,2013-01-15 20:32:00,
2013-01-15 15:37:00,56.9,56.3,30.12,SSW,200,0.0,0.0,98,0.00,,,1.04,Wunderground v.1.13,2013-01-15 20:37:00,
2013-01-15 15:42:00,56.9,56.3,30.12,ESE,107,0.0,1.0,98,0.00,,,1.04,Wunderground v.1.13,2013-01-15 20:42:00,
2013-01-15 15:47:00,56.9,56.3,30.11,South,169,2.0,2.0,98,0.00,,,1.04,Wunderground v.1.13,2013-01-15 20:47:00,
2013-01-15 15:52:00,56.9,56.3,30.11,North,360,1.0,1.0,98,0.00,,,1.04,Wunderground v.1.13,2013-01-15 20:52:00,
2013-01-15 15:57:00,56.9,56.6,30.11,SSE,166,2.0,2.0,99,0.00,,,1.04,Wunderground v.1.13,2013-01-15 20:57:00,
2013-01-15 16:02:00,56.9,56.3,30.11,SW,232,0.0,1.0,98,0.00,,,1.04,Wunderground v.1.13,2013-01-15 21:02:00,
2013-01-15 16:07:00,57.0,56.4,30.12,WSW,251,0.0,1.0,98,0.00,,,1.05,Wunderground v.1.13,2013-01-15 21:07:00,
2013-01-15 16:12:00,56.9,56.3,30.12,WSW,258,2.0,2.0,98,0.00,,,1.05,Wunderground v.1.13,2013-01-15 21:12:00,
2013-01-15 16:17:00,57.0,56.4,30.13,SSW,203,0.0,1.0,98,0.00,,,1.05,Wunderground v.1.13,2013-01-15 21:17:00,
2013-01-15 16:22:00,57.0,56.4,30.13,South,180,0.0,1.0,98,0.46,,,1.07,Wunderground v.1.13,2013-01-15 21:22:00,
2013-01-15 16:27:00,56.9,56.6,30.13,SE,133,0.0,0.0,99,0.38,,,1.11,Wunderground v.1.13,2013-01-15 21:27:00,
2013-01-15 16:32:00,57.0,56.7,30.13,SE,145,0.0,1.0,99,0.46,,,1.15,Wunderground v.1.13,2013-01-15 21:32:00,
2013-01-15 16:37:00,57.1,56.8,30.13,ESE,119,0.0,1.0,99,0.15,,,1.16,Wunderground v.1.13,2013-01-15 21:37:00,
2013-01-15 16:42:00,57.1,56.8,30.13,South,174,0.0,2.0,99,0.12,,,1.17,Wunderground v.1.13,2013-01-15 21:42:00,
2013-01-15 16:47:00,57.1,56.8,30.13,ESE,102,0.0,2.0,99,0.09,,,1.18,Wunderground v.1.13,2013-01-15 21:47:00,
2013-01-15 16:52:00,57.2,56.9,30.14,ESE,102,0.0,0.0,99,0.07,,,1.18,Wunderground v.1.13,2013-01-15 21:52:00,
2013-01-15 16:57:00,57.2,56.9,30.14,ESE,103,0.0,0.0,99,0.04,,,1.18,Wunderground v.1.13,2013-01-15 21:57:00,
2013-01-15 17:02:00,57.3,57.0,30.14,ESE,118,0.0,1.0,99,0.00,,,1.19,Wunderground v.1.13,2013-01-15 22:02:00,
2013-01-15 17:07:00,57.3,57.0,30.14,SSE,166,0.0,0.0,99,0.00,,,1.19,Wunderground v.1.13,2013-01-15 22:07:00,
2013-01-15 17:12:00,57.3,57.0,30.15,SW,217,0.0,0.0,99,0.00,,,1.19,Wunderground v.1.13,2013-01-15 22:12:00,
2013-01-15 17:18:00,57.4,57.1,30.15,SW,217,0.0,0.0,99,0.04,,,1.20,Wunderground v.1.13,2013-01-15 22:18:00,
2013-01-15 17:23:00,57.4,57.1,30.15,SSW,212,0.0,0.0,99,0.04,,,1.20,Wunderground v.1.13,2013-01-15 22:23:00,
2013-01-15 17:28:00,57.4,57.1,30.15,SSW,212,0.0,0.0,99,0.06,,,1.21,Wunderground v.1.13,2013-01-15 22:28:00,
2013-01-15 17:33:00,57.5,57.2,30.15,SSW,212,0.0,0.0,99,0.10,,,1.21,Wunderground v.1.13,2013-01-15 22:33:00,
2013-01-15 17:38:00,57.5,57.2,30.15,SSW,212,0.0,0.0,99,0.27,,,1.24,Wunderground v.1.13,2013-01-15 22:38:00,
2013-01-15 17:43:00,57.4,57.1,30.15,SSW,212,0.0,0.0,99,0.20,,,1.26,Wunderground v.1.13,2013-01-15 22:43:00,
2013-01-15 17:48:00,57.5,57.2,30.15,SSW,212,0.0,0.0,99,0.19,,,1.27,Wunderground v.1.13,2013-01-15 22:48:00,
2013-01-15 17:53:00,57.6,57.3,30.15,SSW,212,0.0,0.0,99,0.13,,,1.29,Wunderground v.1.13,2013-01-15 22:53:00,
2013-01-15 17:58:00,57.6,57.3,30.15,SSW,212,0.0,0.0,99,0.14,,,1.30,Wunderground v.1.13,2013-01-15 22:58:00,
2013-01-15 18:03:00,57.7,57.4,30.15,SSW,212,0.0,0.0,99,0.26,,,1.31,Wunderground v.1.13,2013-01-15 23:03:00,
2013-01-15 18:08:00,57.8,57.5,30.15,SSW,212,0.0,1.0,99,0.28,,,1.34,Wunderground v.1.13,2013-01-15 23:08:00,
2013-01-15 18:13:00,57.8,57.5,30.15,SSW,212,0.0,0.0,99,0.29,,,1.37,Wunderground v.1.13,2013-01-15 23:13:00,
2013-01-15 18:18:00,57.8,57.5,30.15,SSW,212,0.0,0.0,99,0.20,,,1.38,Wunderground v.1.13,2013-01-15 23:18:00,
2013-01-15 18:23:00,57.9,57.6,30.15,SSW,212,0.0,0.0,99,0.12,,,1.39,Wunderground v.1.13,2013-01-15 23:23:00,
2013-01-15 18:28:00,57.9,57.6,30.16,SW,215,0.0,2.0,99,0.08,,,1.40,Wunderground v.1.13,2013-01-15 23:28:00,
2013-01-15 18:33:00,57.8,57.5,30.15,SW,215,0.0,0.0,99,0.11,,,1.41,Wunderground v.1.13,2013-01-15 23:33:00,
2013-01-15 18:38:00,57.8,57.5,30.15,SW,215,0.0,0.0,99,0.12,,,1.42,Wunderground v.1.13,2013-01-15 23:38:00,
2013-01-15 18:43:00,57.8,57.5,30.15,SW,215,0.0,0.0,99,0.26,,,1.44,Wunderground v.1.13,2013-01-15 23:43:00,
2013-01-15 18:48:00,58.0,57.7,30.15,SW,215,0.0,0.0,99,0.52,,,1.47,Wunderground v.1.13,2013-01-15 23:48:00,
2013-01-15 18:53:00,58.2,57.9,30.15,SW,215,0.0,0.0,99,0.48,,,1.50,Wunderground v.1.13,2013-01-15 23:53:00,
2013-01-15 18:58:00,58.3,58.0,30.15,SW,215,0.0,0.0,99,0.24,,,1.52,Wunderground v.1.13,2013-01-15 23:58:00,
2013-01-15 19:03:00,58.3,58.0,30.15,SW,215,0.0,0.0,99,0.12,,,1.53,Wunderground v.1.13,2013-01-16 00:03:00,
2013-01-15 19:08:00,58.3,58.0,30.15,SW,215,0.0,0.0,99,0.19,,,1.55,Wunderground v.1.13,2013-01-16 00:08:00,
2013-01-15 19:13:00,58.4,58.1,30.15,SW,215,0.0,0.0,99,0.19,,,1.57,Wunderground v.1.13,2013-01-16 00:13:00,
2013-01-15 19:18:00,58.5,58.2,30.15,SW,215,0.0,0.0,99,0.11,,,1.57,Wunderground v.1.13,2013-01-16 00:18:00,
2013-01-15 19:23:00,58.6,58.3,30.15,SSW,208,0.0,1.0,99,0.06,,,1.57,Wunderground v.1.13,2013-01-16 00:23:00,
2013-01-15 19:28:00,58.7,58.4,30.14,SSW,209,0.0,1.0,99,0.04,,,1.57,Wunderground v.1.13,2013-01-16 00:28:00,
2013-01-15 19:33:00,59.1,58.8,30.15,SSE,164,0.0,7.0,99,0.00,,,1.58,Wunderground v.1.13,2013-01-16 00:33:00,
2013-01-15 19:38:00,59.1,58.8,30.15,WSW,239,0.0,0.0,99,0.13,,,1.59,Wunderground v.1.13,2013-01-16 00:38:00,
2013-01-15 19:43:00,59.1,58.8,30.15,WSW,239,0.0,0.0,99,0.15,,,1.60,Wunderground v.1.13,2013-01-16 00:43:00,
2013-01-15 19:48:00,59.1,58.8,30.15,WSW,239,0.0,1.0,99,0.46,,,1.63,Wunderground v.1.13,2013-01-16 00:48:00,
2013-01-15 19:53:00,59.2,58.9,30.15,WSW,239,0.0,0.0,99,0.10,,,1.63,Wunderground v.1.13,2013-01-16 00:53:00,
2013-01-15 19:58:00,59.2,58.9,30.15,SW,223,0.0,0.0,99,0.06,,,1.64,Wunderground v.1.13,2013-01-16 00:58:00,
2013-01-15 20:03:00,59.2,58.9,30.14,SW,223,0.0,0.0,99,0.06,,,1.64,Wunderground v.1.13,2013-01-16 01:03:00,
2013-01-15 20:08:00,59.2,58.9,30.14,SW,223,0.0,0.0,99,0.08,,,1.65,Wunderground v.1.13,2013-01-16 01:08:00,
2013-01-15 20:13:00,59.4,59.1,30.14,SSW,202,0.0,4.0,99,0.06,,,1.65,Wunderground v.1.13,2013-01-16 01:13:00,
2013-01-15 20:19:00,59.5,59.2,30.13,South,190,0.0,0.0,99,0.04,,,1.65,Wunderground v.1.13,2013-01-16 01:19:00,
2013-01-15 20:24:00,59.6,59.3,30.13,South,184,0.0,1.0,99,0.04,,,1.66,Wunderground v.1.13,2013-01-16 01:24:00,
2013-01-15 20:29:00,59.6,59.3,30.13,SSE,163,0.0,0.0,99,0.04,,,1.66,Wunderground v.1.13,2013-01-16 01:29:00,
2013-01-15 20:34:00,59.6,59.3,30.13,SSE,163,0.0,0.0,99,0.04,,,1.66,Wunderground v.1.13,2013-01-16 01:34:00,
2013-01-15 20:39:00,59.7,59.4,30.13,SSE,163,0.0,4.0,99,0.00,,,1.66,Wunderground v.1.13,2013-01-16 01:39:00,
2013-01-15 20:44:00,59.8,59.5,30.13,SSW,194,0.0,1.0,99,0.00,,,1.67,Wunderground v.1.13,2013-01-16 01:44:00,
2013-01-15 20:49:00,59.9,59.6,30.13,South,184,0.0,2.0,99,0.00,,,1.67,Wunderground v.1.13,2013-01-16 01:49:00,
2013-01-15 20:54:00,60.0,59.7,30.13,SSW,213,0.0,7.0,99,0.00,,,1.67,Wunderground v.1.13,2013-01-16 01:54:00,
2013-01-15 20:59:00,60.1,59.8,30.12,SSW,213,0.0,0.0,99,0.66,,,1.70,Wunderground v.1.13,2013-01-16 01:59:00,
2013-01-15 21:04:00,60.1,59.8,30.12,South,181,0.0,2.0,99,0.14,,,1.71,Wunderground v.1.13,2013-01-16 02:04:00,
2013-01-15 21:09:00,60.1,59.8,30.12,South,178,0.0,3.0,99,0.24,,,1.73,Wunderground v.1.13,2013-01-16 02:09:00,
2013-01-15 21:14:00,60.1,59.8,30.12,South,175,0.0,3.0,99,0.24,,,1.76,Wunderground v.1.13,2013-01-16 02:14:00,
2013-01-15 21:19:00,60.2,59.9,30.12,South,190,0.0,3.0,99,0.12,,,1.77,Wunderground v.1.13,2013-01-16 02:19:00,
2013-01-15 21:24:00,60.3,60.0,30.12,SSE,157,0.0,4.0,99,0.10,,,1.77,Wunderground v.1.13,2013-01-16 02:24:00,
2013-01-15 21:29:00,60.4,60.1,30.12,South,178,0.0,2.0,99,0.05,,,1.77,Wunderground v.1.13,2013-01-16 02:29:00,
2013-01-15 21:34:00,60.4,60.1,30.12,South,180,0.0,2.0,99,0.04,,,1.77,Wunderground v.1.13,2013-01-16 02:34:00,
2013-01-15 21:39:00,60.5,60.2,30.12,South,178,0.0,1.0,99,0.00,,,1.77,Wunderground v.1.13,2013-01-16 02:39:00,
2013-01-15 21:44:00,60.5,60.2,30.12,South,178,0.0,1.0,99,0.00,,,1.77,Wunderground v.1.13,2013-01-16 02:44:00,
2013-01-15 21:49:00,60.4,60.1,30.11,South,178,0.0,0.0,99,0.00,,,1.77,Wunderground v.1.13,2013-01-16 02:49:00,
2013-01-15 21:54:00,60.3,60.0,30.12,SSE,167,0.0,2.0,99,0.00,,,1.77,Wunderground v.1.13,2013-01-16 02:54:00,
2013-01-15 21:59:00,60.3,60.0,30.12,South,190,0.0,3.0,99,0.00,,,1.77,Wunderground v.1.13,2013-01-16 02:59:00,
2013-01-15 22:04:00,60.3,60.0,30.12,South,190,0.0,1.0,99,0.49,,,1.79,Wunderground v.1.13,2013-01-16 03:04:00,
2013-01-15 22:09:00,60.3,60.0,30.12,South,190,0.0,0.0,99,0.26,,,1.81,Wunderground v.1.13,2013-01-16 03:09:00,
2013-01-15 22:15:00,60.3,60.0,30.12,South,190,0.0,1.0,99,0.09,,,1.81,Wunderground v.1.13,2013-01-16 03:15:00,
2013-01-15 22:20:00,60.3,60.0,30.11,South,190,0.0,0.0,99,0.05,,,1.81,Wunderground v.1.13,2013-01-16 03:20:00,
2013-01-15 22:25:00,60.2,59.9,30.11,South,190,0.0,0.0,99,0.05,,,1.82,Wunderground v.1.13,2013-01-16 03:25:00,
2013-01-15 22:30:00,60.2,59.9,30.11,South,190,0.0,0.0,99,0.05,,,1.82,Wunderground v.1.13,2013-01-16 03:30:00,
2013-01-15 22:35:00,60.2,59.9,30.11,South,175,0.0,2.0,99,0.04,,,1.82,Wunderground v.1.13,2013-01-16 03:35:00,
2013-01-15 22:40:00,60.3,60.0,30.11,South,175,0.0,1.0,99,0.33,,,1.84,Wunderground v.1.13,2013-01-16 03:40:00,
2013-01-15 22:45:00,60.3,60.0,30.11,South,175,0.0,0.0,99,0.14,,,1.85,Wunderground v.1.13,2013-01-16 03:45:00,
2013-01-15 22:50:00,60.3,60.0,30.11,South,171,0.0,2.0,99,0.06,,,1.85,Wunderground v.1.13,2013-01-16 03:50:00,
2013-01-15 22:55:00,60.3,60.0,30.10,South,171,0.0,0.0,99,0.04,,,1.85,Wunderground v.1.13,2013-01-16 03:55:00,
2013-01-15 23:00:00,60.2,59.9,30.10,South,171,0.0,0.0,99,0.00,,,1.85,Wunderground v.1.13,2013-01-16 04:00:00,
2013-01-15 23:05:00,60.2,59.9,30.10,South,171,0.0,0.0,99,0.00,,,1.85,Wunderground v.1.13,2013-01-16 04:05:00,
2013-01-15 23:10:00,60.2,59.9,30.10,South,171,0.0,0.0,99,0.00,,,1.85,Wunderground v.1.13,2013-01-16 04:10:00,
2013-01-15 23:15:00,60.3,60.0,30.10,SW,214,0.0,3.0,99,0.00,,,1.85,Wunderground v.1.13,2013-01-16 04:15:00,
2013-01-15 23:20:00,60.3,60.0,30.10,SSE,147,0.0,3.0,99,0.00,,,1.86,Wunderground v.1.13,2013-01-16 04:20:00,
2013-01-15 23:25:00,60.4,60.1,30.10,SSE,168,0.0,2.0,99,0.00,,,1.86,Wunderground v.1.13,2013-01-16 04:25:00,
2013-01-15 23:30:00,60.4,60.1,30.10,South,172,0.0,3.0,99,0.00,,,1.86,Wunderground v.1.13,2013-01-16 04:30:00,
2013-01-15 23:35:00,60.3,60.0,30.10,South,172,0.0,0.0,99,0.04,,,1.87,Wunderground v.1.13,2013-01-16 04:35:00,
2013-01-15 23:40:00,60.3,60.0,30.09,South,172,0.0,0.0,99,0.10,,,1.88,Wunderground v.1.13,2013-01-16 04:40:00,
2013-01-15 23:45:00,60.3,60.0,30.09,South,172,0.0,0.0,99,0.08,,,1.88,Wunderground v.1.13,2013-01-16 04:45:00,
2013-01-15 23:50:00,60.3,60.0,30.09,South,172,0.0,0.0,99,0.05,,,1.88,Wunderground v.1.13,2013-01-16 04:50:00,
2013-01-15 23:55:00,60.3,60.0,30.09,South,172,0.0,0.0,99,0.00,,,1.88,Wunderground v.1.13,2013-01-16 04:55:00,